sensor_id;sensor_type;location;lat;lon;timestamp;temperature;humidity
12911;DHT22;6523;49.758;6.120;2023-11-19T00:01:34;12.00;99.90
12911;DHT22;6523;49.758;6.120;2023-11-19T00:04:00;12.00;99.90
12911;DHT22;6523;49.758;6.120;2023-11-19T00:06:25;12.00;99.90
12911;DHT22;6523;49.758;6.120;2023-11-19T00:08:51;12.10;99.90
12911;DHT22;6523;49.758;6.120;2023-11-19T00:11:17;12.10;99.90
12911;DHT22;6523;49.758;6.120;2023-11-19T00:13:42;12.10;99.90
12911;DHT22;6523;49.758;6.120;2023-11-19T00:16:08;12.10;99.90
12911;DHT22;6523;49.758;6.120;2023-11-19T00:18:35;12.20;99.90
12911;DHT22;6523;49.758;6.120;2023-11-19T00:21:01;12.10;99.90
12911;DHT22;6523;49.758;6.120;2023-11-19T00:23:27;12.10;99.90
12911;DHT22;6523;49.758;6.120;2023-11-19T00:25:53;12.20;99.90
12911;DHT22;6523;49.758;6.120;2023-11-19T00:28:19;12.20;99.90
12911;DHT22;6523;49.758;6.120;2023-11-19T00:30:44;12.30;99.90
12911;DHT22;6523;49.758;6.120;2023-11-19T00:33:10;12.30;99.90
12911;DHT22;6523;49.758;6.120;2023-11-19T00:35:35;12.30;99.90
12911;DHT22;6523;49.758;6.120;2023-11-19T00:38:01;12.30;99.90
12911;DHT22;6523;49.758;6.120;2023-11-19T00:40:28;12.30;99.90
12911;DHT22;6523;49.758;6.120;2023-11-19T00:42:54;12.30;99.90
12911;DHT22;6523;49.758;6.120;2023-11-19T00:45:19;12.30;99.90
12911;DHT22;6523;49.758;6.120;2023-11-19T00:47:45;12.30;99.90
12911;DHT22;6523;49.758;6.120;2023-11-19T00:50:10;12.30;99.90
12911;DHT22;6523;49.758;6.120;2023-11-19T00:52:37;12.40;99.90
12911;DHT22;6523;49.758;6.120;2023-11-19T00:55:03;12.40;99.90
12911;DHT22;6523;49.758;6.120;2023-11-19T00:57:30;12.30;99.90
12911;DHT22;6523;49.758;6.120;2023-11-19T00:59:57;12.30;99.90
12911;DHT22;6523;49.758;6.120;2023-11-19T01:02:24;12.40;99.90
12911;DHT22;6523;49.758;6.120;2023-11-19T01:04:49;12.50;99.90
12911;DHT22;6523;49.758;6.120;2023-11-19T01:07:15;12.50;99.90
12911;DHT22;6523;49.758;6.120;2023-11-19T01:09:42;12.50;99.90
12911;DHT22;6523;49.758;6.120;2023-11-19T01:12:07;12.50;99.90
12911;DHT22;6523;49.758;6.120;2023-11-19T01:14:34;12.60;99.90
12911;DHT22;6523;49.758;6.120;2023-11-19T01:17:01;12.60;99.90
12911;DHT22;6523;49.758;6.120;2023-11-19T01:19:26;12.60;99.90
12911;DHT22;6523;49.758;6.120;2023-11-19T01:21:54;12.50;99.90
12911;DHT22;6523;49.758;6.120;2023-11-19T01:24:20;12.60;99.90
12911;DHT22;6523;49.758;6.120;2023-11-19T01:26:45;12.70;99.90
12911;DHT22;6523;49.758;6.120;2023-11-19T01:29:15;12.80;99.90
12911;DHT22;6523;49.758;6.120;2023-11-19T01:31:45;12.80;99.90
12911;DHT22;6523;49.758;6.120;2023-11-19T01:34:12;12.80;99.90
12911;DHT22;6523;49.758;6.120;2023-11-19T01:36:38;12.90;99.90
12911;DHT22;6523;49.758;6.120;2023-11-19T01:39:04;12.80;99.90
12911;DHT22;6523;49.758;6.120;2023-11-19T01:41:34;12.90;99.90
12911;DHT22;6523;49.758;6.120;2023-11-19T01:44:01;13.00;99.90
12911;DHT22;6523;49.758;6.120;2023-11-19T01:46:27;13.00;99.90
12911;DHT22;6523;49.758;6.120;2023-11-19T01:48:52;13.10;99.90
12911;DHT22;6523;49.758;6.120;2023-11-19T01:51:19;13.10;99.90
12911;DHT22;6523;49.758;6.120;2023-11-19T01:53:46;13.20;99.90
12911;DHT22;6523;49.758;6.120;2023-11-19T01:56:14;13.30;99.90
12911;DHT22;6523;49.758;6.120;2023-11-19T01:58:41;13.40;99.90
12911;DHT22;6523;49.758;6.120;2023-11-19T02:01:07;13.40;99.90
12911;DHT22;6523;49.758;6.120;2023-11-19T02:03:33;13.30;99.90
12911;DHT22;6523;49.758;6.120;2023-11-19T02:05:59;13.40;99.90
12911;DHT22;6523;49.758;6.120;2023-11-19T02:08:25;13.40;99.90
12911;DHT22;6523;49.758;6.120;2023-11-19T02:10:51;13.40;99.90
12911;DHT22;6523;49.758;6.120;2023-11-19T02:13:20;13.60;99.90
12911;DHT22;6523;49.758;6.120;2023-11-19T02:15:46;13.50;99.90
12911;DHT22;6523;49.758;6.120;2023-11-19T02:18:25;13.60;99.90
12911;DHT22;6523;49.758;6.120;2023-11-19T02:20:54;13.60;99.90
12911;DHT22;6523;49.758;6.120;2023-11-19T02:23:20;13.60;99.90
12911;DHT22;6523;49.758;6.120;2023-11-19T02:28:25;13.70;99.90
12911;DHT22;6523;49.758;6.120;2023-11-19T02:30:50;13.80;99.90
12911;DHT22;6523;49.758;6.120;2023-11-19T02:33:16;13.90;99.90
12911;DHT22;6523;49.758;6.120;2023-11-19T02:35:41;14.00;99.90
12911;DHT22;6523;49.758;6.120;2023-11-19T02:38:07;14.00;99.90
12911;DHT22;6523;49.758;6.120;2023-11-19T02:40:33;14.00;99.90
12911;DHT22;6523;49.758;6.120;2023-11-19T02:42:58;14.10;99.90
12911;DHT22;6523;49.758;6.120;2023-11-19T02:45:25;14.10;99.90
12911;DHT22;6523;49.758;6.120;2023-11-19T02:47:51;14.10;99.90
12911;DHT22;6523;49.758;6.120;2023-11-19T02:50:18;14.10;99.90
12911;DHT22;6523;49.758;6.120;2023-11-19T02:52:51;14.20;99.90
12911;DHT22;6523;49.758;6.120;2023-11-19T02:55:16;14.20;99.90
12911;DHT22;6523;49.758;6.120;2023-11-19T02:57:43;14.20;99.90
12911;DHT22;6523;49.758;6.120;2023-11-19T03:00:17;14.20;99.90
12911;DHT22;6523;49.758;6.120;2023-11-19T03:02:44;14.30;99.90
12911;DHT22;6523;49.758;6.120;2023-11-19T03:05:12;14.30;99.90
12911;DHT22;6523;49.758;6.120;2023-11-19T03:07:43;14.30;99.90
12911;DHT22;6523;49.758;6.120;2023-11-19T03:10:10;14.30;99.90
12911;DHT22;6523;49.758;6.120;2023-11-19T03:12:42;14.30;99.90
12911;DHT22;6523;49.758;6.120;2023-11-19T03:15:08;14.20;99.90
12911;DHT22;6523;49.758;6.120;2023-11-19T03:17:41;14.20;99.90
12911;DHT22;6523;49.758;6.120;2023-11-19T03:20:08;14.30;99.90
12911;DHT22;6523;49.758;6.120;2023-11-19T03:22:43;14.30;99.90
12911;DHT22;6523;49.758;6.120;2023-11-19T03:25:09;14.30;99.90
12911;DHT22;6523;49.758;6.120;2023-11-19T03:27:36;14.30;99.90
12911;DHT22;6523;49.758;6.120;2023-11-19T03:30:02;14.30;99.90
12911;DHT22;6523;49.758;6.120;2023-11-19T03:32:30;14.30;99.90
12911;DHT22;6523;49.758;6.120;2023-11-19T03:34:57;14.30;99.90
12911;DHT22;6523;49.758;6.120;2023-11-19T03:37:23;14.40;99.90
12911;DHT22;6523;49.758;6.120;2023-11-19T03:39:49;14.40;99.90
12911;DHT22;6523;49.758;6.120;2023-11-19T03:42:14;14.50;99.90
12911;DHT22;6523;49.758;6.120;2023-11-19T03:44:40;14.50;99.90
12911;DHT22;6523;49.758;6.120;2023-11-19T03:47:05;14.50;99.90
12911;DHT22;6523;49.758;6.120;2023-11-19T03:49:31;14.50;99.90
12911;DHT22;6523;49.758;6.120;2023-11-19T03:51:57;14.60;99.90
12911;DHT22;6523;49.758;6.120;2023-11-19T03:54:23;14.50;99.90
12911;DHT22;6523;49.758;6.120;2023-11-19T03:56:48;14.70;99.90
12911;DHT22;6523;49.758;6.120;2023-11-19T03:59:14;14.70;99.90
12911;DHT22;6523;49.758;6.120;2023-11-19T04:01:41;14.60;99.90
12911;DHT22;6523;49.758;6.120;2023-11-19T04:04:06;14.70;99.90
12911;DHT22;6523;49.758;6.120;2023-11-19T04:06:32;14.70;99.90
12911;DHT22;6523;49.758;6.120;2023-11-19T04:08:57;14.60;99.90
12911;DHT22;6523;49.758;6.120;2023-11-19T04:11:23;14.80;99.90
12911;DHT22;6523;49.758;6.120;2023-11-19T04:13:48;14.70;99.90
12911;DHT22;6523;49.758;6.120;2023-11-19T04:16:14;14.80;99.90
12911;DHT22;6523;49.758;6.120;2023-11-19T04:18:40;14.80;99.90
12911;DHT22;6523;49.758;6.120;2023-11-19T04:21:07;14.80;99.90
12911;DHT22;6523;49.758;6.120;2023-11-19T04:23:32;14.80;99.90
12911;DHT22;6523;49.758;6.120;2023-11-19T04:25:58;14.80;99.90
12911;DHT22;6523;49.758;6.120;2023-11-19T04:28:23;14.80;99.90
12911;DHT22;6523;49.758;6.120;2023-11-19T04:30:52;14.80;99.90
12911;DHT22;6523;49.758;6.120;2023-11-19T04:33:18;14.80;99.90
12911;DHT22;6523;49.758;6.120;2023-11-19T04:35:43;14.80;99.90
12911;DHT22;6523;49.758;6.120;2023-11-19T04:38:09;14.70;99.90
12911;DHT22;6523;49.758;6.120;2023-11-19T04:40:34;14.80;99.90
12911;DHT22;6523;49.758;6.120;2023-11-19T04:43:00;14.70;99.90
12911;DHT22;6523;49.758;6.120;2023-11-19T04:45:25;14.70;99.90
12911;DHT22;6523;49.758;6.120;2023-11-19T04:47:51;14.80;99.90
12911;DHT22;6523;49.758;6.120;2023-11-19T04:50:16;14.80;99.90
12911;DHT22;6523;49.758;6.120;2023-11-19T04:52:43;14.90;99.90
12911;DHT22;6523;49.758;6.120;2023-11-19T04:55:11;15.00;99.90
12911;DHT22;6523;49.758;6.120;2023-11-19T04:57:37;15.00;99.90
12911;DHT22;6523;49.758;6.120;2023-11-19T05:00:04;15.00;99.90
12911;DHT22;6523;49.758;6.120;2023-11-19T05:02:30;14.80;99.90
12911;DHT22;6523;49.758;6.120;2023-11-19T05:04:56;14.80;99.90
12911;DHT22;6523;49.758;6.120;2023-11-19T05:07:21;14.70;99.90
12911;DHT22;6523;49.758;6.120;2023-11-19T05:09:47;14.60;99.90
12911;DHT22;6523;49.758;6.120;2023-11-19T05:12:12;14.60;99.90
12911;DHT22;6523;49.758;6.120;2023-11-19T05:14:38;14.60;99.90
12911;DHT22;6523;49.758;6.120;2023-11-19T05:17:04;14.70;99.90
12911;DHT22;6523;49.758;6.120;2023-11-19T05:19:29;14.80;99.90
12911;DHT22;6523;49.758;6.120;2023-11-19T05:21:55;14.60;99.90
12911;DHT22;6523;49.758;6.120;2023-11-19T05:24:20;14.70;99.90
12911;DHT22;6523;49.758;6.120;2023-11-19T05:26:46;14.70;99.90
12911;DHT22;6523;49.758;6.120;2023-11-19T05:29:12;14.70;99.90
12911;DHT22;6523;49.758;6.120;2023-11-19T05:31:38;14.60;99.90
12911;DHT22;6523;49.758;6.120;2023-11-19T05:34:03;14.50;99.90
12911;DHT22;6523;49.758;6.120;2023-11-19T05:36:30;14.40;99.90
12911;DHT22;6523;49.758;6.120;2023-11-19T05:38:56;14.40;99.90
12911;DHT22;6523;49.758;6.120;2023-11-19T05:41:21;14.30;99.90
12911;DHT22;6523;49.758;6.120;2023-11-19T05:43:47;14.30;99.90
12911;DHT22;6523;49.758;6.120;2023-11-19T05:46:12;14.00;99.90
12911;DHT22;6523;49.758;6.120;2023-11-19T05:48:38;14.00;99.90
12911;DHT22;6523;49.758;6.120;2023-11-19T05:51:04;14.10;99.90
12911;DHT22;6523;49.758;6.120;2023-11-19T05:53:31;14.00;99.90
12911;DHT22;6523;49.758;6.120;2023-11-19T05:55:56;14.00;99.90
12911;DHT22;6523;49.758;6.120;2023-11-19T05:58:26;14.00;99.90
12911;DHT22;6523;49.758;6.120;2023-11-19T06:00:54;13.90;99.90
12911;DHT22;6523;49.758;6.120;2023-11-19T06:03:19;13.80;99.90
12911;DHT22;6523;49.758;6.120;2023-11-19T06:05:47;13.70;99.90
12911;DHT22;6523;49.758;6.120;2023-11-19T06:08:12;13.70;99.90
12911;DHT22;6523;49.758;6.120;2023-11-19T06:10:42;13.70;99.90
12911;DHT22;6523;49.758;6.120;2023-11-19T06:13:08;13.80;99.90
12911;DHT22;6523;49.758;6.120;2023-11-19T06:15:36;13.90;99.90
12911;DHT22;6523;49.758;6.120;2023-11-19T06:18:02;14.00;99.90
12911;DHT22;6523;49.758;6.120;2023-11-19T06:20:29;14.00;99.90
12911;DHT22;6523;49.758;6.120;2023-11-19T06:22:56;14.00;99.90
12911;DHT22;6523;49.758;6.120;2023-11-19T06:25:22;14.00;99.90
12911;DHT22;6523;49.758;6.120;2023-11-19T06:27:49;14.10;99.90
12911;DHT22;6523;49.758;6.120;2023-11-19T06:30:15;14.00;99.90
12911;DHT22;6523;49.758;6.120;2023-11-19T06:32:40;13.90;99.90
12911;DHT22;6523;49.758;6.120;2023-11-19T06:35:06;14.00;99.90
12911;DHT22;6523;49.758;6.120;2023-11-19T06:37:32;14.00;99.90
12911;DHT22;6523;49.758;6.120;2023-11-19T06:39:58;13.90;99.90
12911;DHT22;6523;49.758;6.120;2023-11-19T06:42:23;13.90;99.90
12911;DHT22;6523;49.758;6.120;2023-11-19T06:44:49;13.90;99.90
12911;DHT22;6523;49.758;6.120;2023-11-19T06:47:14;13.90;99.90
12911;DHT22;6523;49.758;6.120;2023-11-19T06:49:43;13.90;99.90
12911;DHT22;6523;49.758;6.120;2023-11-19T06:52:08;13.80;99.90
12911;DHT22;6523;49.758;6.120;2023-11-19T06:54:34;13.80;99.90
12911;DHT22;6523;49.758;6.120;2023-11-19T06:57:00;13.80;99.90
12911;DHT22;6523;49.758;6.120;2023-11-19T06:59:25;13.80;99.90
12911;DHT22;6523;49.758;6.120;2023-11-19T07:01:51;13.80;99.90
12911;DHT22;6523;49.758;6.120;2023-11-19T07:04:16;13.70;99.90
12911;DHT22;6523;49.758;6.120;2023-11-19T07:06:42;13.70;99.90
12911;DHT22;6523;49.758;6.120;2023-11-19T07:09:08;13.70;99.90
12911;DHT22;6523;49.758;6.120;2023-11-19T07:11:38;13.70;99.90
12911;DHT22;6523;49.758;6.120;2023-11-19T07:14:04;13.60;99.90
12911;DHT22;6523;49.758;6.120;2023-11-19T07:16:29;13.60;99.90
12911;DHT22;6523;49.758;6.120;2023-11-19T07:18:56;13.50;99.90
12911;DHT22;6523;49.758;6.120;2023-11-19T07:21:21;13.60;99.90
12911;DHT22;6523;49.758;6.120;2023-11-19T07:23:47;13.70;99.90
12911;DHT22;6523;49.758;6.120;2023-11-19T07:26:12;13.70;99.90
12911;DHT22;6523;49.758;6.120;2023-11-19T07:28:38;13.50;99.90
12911;DHT22;6523;49.758;6.120;2023-11-19T07:31:05;13.60;99.90
12911;DHT22;6523;49.758;6.120;2023-11-19T07:33:33;13.60;99.90
12911;DHT22;6523;49.758;6.120;2023-11-19T07:35:59;13.60;99.90
12911;DHT22;6523;49.758;6.120;2023-11-19T07:38:24;13.70;99.90
12911;DHT22;6523;49.758;6.120;2023-11-19T07:40:50;13.60;99.90
12911;DHT22;6523;49.758;6.120;2023-11-19T07:43:15;13.70;99.90
12911;DHT22;6523;49.758;6.120;2023-11-19T07:45:41;13.60;99.90
12911;DHT22;6523;49.758;6.120;2023-11-19T07:48:09;13.60;99.90
12911;DHT22;6523;49.758;6.120;2023-11-19T07:50:35;13.60;99.90
12911;DHT22;6523;49.758;6.120;2023-11-19T07:53:01;13.50;99.90
12911;DHT22;6523;49.758;6.120;2023-11-19T07:55:27;13.50;99.90
12911;DHT22;6523;49.758;6.120;2023-11-19T07:57:53;13.40;99.90
12911;DHT22;6523;49.758;6.120;2023-11-19T08:00:18;13.30;99.90
12911;DHT22;6523;49.758;6.120;2023-11-19T08:02:45;13.20;99.90
12911;DHT22;6523;49.758;6.120;2023-11-19T08:05:10;13.00;99.90
12911;DHT22;6523;49.758;6.120;2023-11-19T08:07:37;13.00;99.90
12911;DHT22;6523;49.758;6.120;2023-11-19T08:10:04;13.10;99.90
12911;DHT22;6523;49.758;6.120;2023-11-19T08:12:30;13.10;99.90
12911;DHT22;6523;49.758;6.120;2023-11-19T08:14:56;12.90;99.90
12911;DHT22;6523;49.758;6.120;2023-11-19T08:17:24;13.10;99.90
12911;DHT22;6523;49.758;6.120;2023-11-19T08:19:50;13.10;99.90
12911;DHT22;6523;49.758;6.120;2023-11-19T08:22:16;13.00;99.90
12911;DHT22;6523;49.758;6.120;2023-11-19T08:24:44;13.00;99.90
12911;DHT22;6523;49.758;6.120;2023-11-19T08:27:10;13.00;99.90
12911;DHT22;6523;49.758;6.120;2023-11-19T08:29:35;13.10;99.90
12911;DHT22;6523;49.758;6.120;2023-11-19T08:32:01;13.00;99.90
12911;DHT22;6523;49.758;6.120;2023-11-19T08:34:28;13.20;99.90
12911;DHT22;6523;49.758;6.120;2023-11-19T08:36:54;13.30;99.90
12911;DHT22;6523;49.758;6.120;2023-11-19T08:39:20;13.30;99.90
12911;DHT22;6523;49.758;6.120;2023-11-19T08:41:48;13.30;99.90
12911;DHT22;6523;49.758;6.120;2023-11-19T08:44:14;13.30;99.90
12911;DHT22;6523;49.758;6.120;2023-11-19T08:46:49;13.30;99.90
12911;DHT22;6523;49.758;6.120;2023-11-19T08:49:15;13.30;99.90
12911;DHT22;6523;49.758;6.120;2023-11-19T08:51:40;13.30;99.90
12911;DHT22;6523;49.758;6.120;2023-11-19T08:54:07;13.30;99.90
12911;DHT22;6523;49.758;6.120;2023-11-19T08:56:32;13.30;99.90
12911;DHT22;6523;49.758;6.120;2023-11-19T08:59:00;13.30;99.90
12911;DHT22;6523;49.758;6.120;2023-11-19T09:01:25;13.30;99.90
12911;DHT22;6523;49.758;6.120;2023-11-19T09:03:51;13.20;99.90
12911;DHT22;6523;49.758;6.120;2023-11-19T09:06:17;13.30;99.90
12911;DHT22;6523;49.758;6.120;2023-11-19T09:08:43;13.40;99.90
12911;DHT22;6523;49.758;6.120;2023-11-19T09:11:08;13.40;99.90
12911;DHT22;6523;49.758;6.120;2023-11-19T09:13:35;13.50;99.90
12911;DHT22;6523;49.758;6.120;2023-11-19T09:16:00;13.60;99.90
12911;DHT22;6523;49.758;6.120;2023-11-19T09:18:32;13.60;99.90
12911;DHT22;6523;49.758;6.120;2023-11-19T09:20:58;13.50;99.90
12911;DHT22;6523;49.758;6.120;2023-11-19T09:23:24;13.60;99.90
12911;DHT22;6523;49.758;6.120;2023-11-19T09:25:54;13.50;99.90
12911;DHT22;6523;49.758;6.120;2023-11-19T09:28:20;13.50;99.90
12911;DHT22;6523;49.758;6.120;2023-11-19T09:30:45;13.60;99.90
12911;DHT22;6523;49.758;6.120;2023-11-19T09:33:11;13.60;99.90
12911;DHT22;6523;49.758;6.120;2023-11-19T09:35:36;13.60;99.90
12911;DHT22;6523;49.758;6.120;2023-11-19T09:38:02;13.70;99.90
12911;DHT22;6523;49.758;6.120;2023-11-19T09:40:28;13.60;99.90
12911;DHT22;6523;49.758;6.120;2023-11-19T09:42:54;13.60;99.90
12911;DHT22;6523;49.758;6.120;2023-11-19T09:45:21;13.70;99.90
12911;DHT22;6523;49.758;6.120;2023-11-19T09:47:51;13.70;99.90
12911;DHT22;6523;49.758;6.120;2023-11-19T09:50:19;13.70;99.90
12911;DHT22;6523;49.758;6.120;2023-11-19T09:52:45;13.70;99.90
12911;DHT22;6523;49.758;6.120;2023-11-19T09:55:11;13.80;99.90
12911;DHT22;6523;49.758;6.120;2023-11-19T09:57:41;13.80;99.90
12911;DHT22;6523;49.758;6.120;2023-11-19T10:00:10;13.80;99.90
12911;DHT22;6523;49.758;6.120;2023-11-19T10:02:36;13.90;99.90
12911;DHT22;6523;49.758;6.120;2023-11-19T10:05:05;14.00;99.90
12911;DHT22;6523;49.758;6.120;2023-11-19T10:07:32;14.10;99.90
12911;DHT22;6523;49.758;6.120;2023-11-19T10:10:01;14.10;99.90
12911;DHT22;6523;49.758;6.120;2023-11-19T10:12:29;14.10;99.90
12911;DHT22;6523;49.758;6.120;2023-11-19T10:14:57;14.10;99.90
12911;DHT22;6523;49.758;6.120;2023-11-19T10:17:33;14.10;99.90
12911;DHT22;6523;49.758;6.120;2023-11-19T10:19:59;14.10;99.90
12911;DHT22;6523;49.758;6.120;2023-11-19T10:22:25;14.10;99.90
12911;DHT22;6523;49.758;6.120;2023-11-19T10:24:52;14.30;99.90
12911;DHT22;6523;49.758;6.120;2023-11-19T10:27:17;14.40;99.90
12911;DHT22;6523;49.758;6.120;2023-11-19T10:29:47;14.20;99.90
12911;DHT22;6523;49.758;6.120;2023-11-19T10:32:13;14.10;99.90
12911;DHT22;6523;49.758;6.120;2023-11-19T10:34:40;14.10;99.90
12911;DHT22;6523;49.758;6.120;2023-11-19T10:37:07;14.00;99.90
12911;DHT22;6523;49.758;6.120;2023-11-19T10:39:54;13.90;99.90
12911;DHT22;6523;49.758;6.120;2023-11-19T10:42:20;13.90;99.90
12911;DHT22;6523;49.758;6.120;2023-11-19T10:44:46;14.20;99.90
12911;DHT22;6523;49.758;6.120;2023-11-19T10:47:13;14.20;99.90
12911;DHT22;6523;49.758;6.120;2023-11-19T10:49:39;14.30;99.90
12911;DHT22;6523;49.758;6.120;2023-11-19T10:52:07;14.50;99.90
12911;DHT22;6523;49.758;6.120;2023-11-19T10:54:34;14.70;99.90
12911;DHT22;6523;49.758;6.120;2023-11-19T10:57:01;15.00;99.90
12911;DHT22;6523;49.758;6.120;2023-11-19T10:59:30;14.90;99.90
12911;DHT22;6523;49.758;6.120;2023-11-19T11:01:57;15.20;99.90
12911;DHT22;6523;49.758;6.120;2023-11-19T11:04:25;15.40;99.90
12911;DHT22;6523;49.758;6.120;2023-11-19T11:06:58;15.30;99.90
12911;DHT22;6523;49.758;6.120;2023-11-19T11:09:26;15.40;99.90
12911;DHT22;6523;49.758;6.120;2023-11-19T11:11:52;15.20;99.90
12911;DHT22;6523;49.758;6.120;2023-11-19T11:14:20;15.20;99.90
12911;DHT22;6523;49.758;6.120;2023-11-19T11:16:48;14.90;99.90
12911;DHT22;6523;49.758;6.120;2023-11-19T11:19:15;15.10;99.90
12911;DHT22;6523;49.758;6.120;2023-11-19T11:21:53;15.10;99.90
12911;DHT22;6523;49.758;6.120;2023-11-19T11:25:05;15.30;99.90
12911;DHT22;6523;49.758;6.120;2023-11-19T11:30:33;15.50;99.90
12911;DHT22;6523;49.758;6.120;2023-11-19T11:36:19;15.20;99.90
12911;DHT22;6523;49.758;6.120;2023-11-19T11:38:49;15.50;99.90
12911;DHT22;6523;49.758;6.120;2023-11-19T11:41:19;15.30;99.90
12911;DHT22;6523;49.758;6.120;2023-11-19T11:43:45;15.30;99.90
12911;DHT22;6523;49.758;6.120;2023-11-19T11:54:14;15.60;99.90
12911;DHT22;6523;49.758;6.120;2023-11-19T11:57:08;15.50;99.90
12911;DHT22;6523;49.758;6.120;2023-11-19T11:59:46;15.80;99.90
12911;DHT22;6523;49.758;6.120;2023-11-19T12:02:15;15.70;99.90
12911;DHT22;6523;49.758;6.120;2023-11-19T12:04:42;15.50;99.90
12911;DHT22;6523;49.758;6.120;2023-11-19T12:07:16;15.30;99.90
12911;DHT22;6523;49.758;6.120;2023-11-19T12:09:47;15.10;99.90
12911;DHT22;6523;49.758;6.120;2023-11-19T12:12:22;15.10;99.90
12911;DHT22;6523;49.758;6.120;2023-11-19T12:17:46;14.80;99.90
12911;DHT22;6523;49.758;6.120;2023-11-19T12:20:15;14.60;99.90
12911;DHT22;6523;49.758;6.120;2023-11-19T12:22:43;14.60;99.90
12911;DHT22;6523;49.758;6.120;2023-11-19T12:25:10;14.50;99.90
12911;DHT22;6523;49.758;6.120;2023-11-19T12:27:36;14.70;99.90
12911;DHT22;6523;49.758;6.120;2023-11-19T12:30:03;14.80;99.90
12911;DHT22;6523;49.758;6.120;2023-11-19T12:32:41;14.70;99.90
12911;DHT22;6523;49.758;6.120;2023-11-19T12:35:08;14.60;99.90
12911;DHT22;6523;49.758;6.120;2023-11-19T12:37:45;14.40;99.90
12911;DHT22;6523;49.758;6.120;2023-11-19T12:40:15;14.20;99.90
12911;DHT22;6523;49.758;6.120;2023-11-19T12:42:43;14.10;99.90
12911;DHT22;6523;49.758;6.120;2023-11-19T12:45:08;14.10;99.90
12911;DHT22;6523;49.758;6.120;2023-11-19T12:47:36;14.10;99.90
12911;DHT22;6523;49.758;6.120;2023-11-19T12:50:02;14.10;99.90
12911;DHT22;6523;49.758;6.120;2023-11-19T12:52:29;14.10;99.90
12911;DHT22;6523;49.758;6.120;2023-11-19T12:54:55;14.10;99.90
12911;DHT22;6523;49.758;6.120;2023-11-19T12:57:20;14.10;99.90
12911;DHT22;6523;49.758;6.120;2023-11-19T12:59:55;14.10;99.90
12911;DHT22;6523;49.758;6.120;2023-11-19T13:02:45;14.10;99.90
12911;DHT22;6523;49.758;6.120;2023-11-19T13:08:04;14.40;99.90
12911;DHT22;6523;49.758;6.120;2023-11-19T13:13:15;14.70;99.90
12911;DHT22;6523;49.758;6.120;2023-11-19T13:15:40;15.10;99.90
12911;DHT22;6523;49.758;6.120;2023-11-19T13:18:06;15.00;99.90
12911;DHT22;6523;49.758;6.120;2023-11-19T13:20:32;14.60;99.90
12911;DHT22;6523;49.758;6.120;2023-11-19T13:23:05;14.70;99.90
12911;DHT22;6523;49.758;6.120;2023-11-19T13:25:32;14.80;99.90
12911;DHT22;6523;49.758;6.120;2023-11-19T13:27:59;14.70;99.90
12911;DHT22;6523;49.758;6.120;2023-11-19T13:30:25;14.70;99.90
12911;DHT22;6523;49.758;6.120;2023-11-19T13:32:52;14.60;99.90
12911;DHT22;6523;49.758;6.120;2023-11-19T13:35:18;14.50;99.90
12911;DHT22;6523;49.758;6.120;2023-11-19T13:37:46;14.50;99.90
12911;DHT22;6523;49.758;6.120;2023-11-19T13:40:12;14.60;99.90
12911;DHT22;6523;49.758;6.120;2023-11-19T13:42:44;14.20;99.90
12911;DHT22;6523;49.758;6.120;2023-11-19T13:45:13;14.00;99.90
12911;DHT22;6523;49.758;6.120;2023-11-19T13:47:41;14.00;99.90
12911;DHT22;6523;49.758;6.120;2023-11-19T13:50:11;14.00;99.90
12911;DHT22;6523;49.758;6.120;2023-11-19T13:52:38;13.90;99.90
12911;DHT22;6523;49.758;6.120;2023-11-19T13:55:08;14.00;99.90
12911;DHT22;6523;49.758;6.120;2023-11-19T13:57:38;14.10;99.90
12911;DHT22;6523;49.758;6.120;2023-11-19T14:00:05;14.20;99.90
12911;DHT22;6523;49.758;6.120;2023-11-19T14:02:35;14.20;99.90
12911;DHT22;6523;49.758;6.120;2023-11-19T14:05:00;14.20;99.90
12911;DHT22;6523;49.758;6.120;2023-11-19T14:07:27;14.10;99.90
12911;DHT22;6523;49.758;6.120;2023-11-19T14:09:53;14.20;99.90
12911;DHT22;6523;49.758;6.120;2023-11-19T14:12:19;14.20;99.90
12911;DHT22;6523;49.758;6.120;2023-11-19T14:14:45;14.20;99.90
12911;DHT22;6523;49.758;6.120;2023-11-19T14:17:11;14.00;99.90
12911;DHT22;6523;49.758;6.120;2023-11-19T14:19:36;13.90;99.90
12911;DHT22;6523;49.758;6.120;2023-11-19T14:22:03;13.80;99.90
12911;DHT22;6523;49.758;6.120;2023-11-19T14:24:29;13.70;99.90
12911;DHT22;6523;49.758;6.120;2023-11-19T14:26:55;13.60;99.90
12911;DHT22;6523;49.758;6.120;2023-11-19T14:29:23;13.60;99.90
12911;DHT22;6523;49.758;6.120;2023-11-19T14:31:49;13.40;99.90
12911;DHT22;6523;49.758;6.120;2023-11-19T14:34:14;13.30;99.90
12911;DHT22;6523;49.758;6.120;2023-11-19T14:36:40;13.40;99.90
12911;DHT22;6523;49.758;6.120;2023-11-19T14:39:05;13.40;99.90
12911;DHT22;6523;49.758;6.120;2023-11-19T14:41:32;13.40;99.90
12911;DHT22;6523;49.758;6.120;2023-11-19T14:43:58;13.40;99.90
12911;DHT22;6523;49.758;6.120;2023-11-19T14:46:23;13.40;99.90
12911;DHT22;6523;49.758;6.120;2023-11-19T14:48:49;13.50;99.90
12911;DHT22;6523;49.758;6.120;2023-11-19T14:51:14;13.50;99.90
12911;DHT22;6523;49.758;6.120;2023-11-19T14:53:40;13.40;99.90
12911;DHT22;6523;49.758;6.120;2023-11-19T14:56:05;13.40;99.90
12911;DHT22;6523;49.758;6.120;2023-11-19T14:58:35;13.40;99.90
12911;DHT22;6523;49.758;6.120;2023-11-19T15:01:00;13.40;99.90
12911;DHT22;6523;49.758;6.120;2023-11-19T15:03:29;13.40;99.90
12911;DHT22;6523;49.758;6.120;2023-11-19T15:05:56;13.50;99.90
12911;DHT22;6523;49.758;6.120;2023-11-19T15:08:21;13.40;99.90
12911;DHT22;6523;49.758;6.120;2023-11-19T15:10:47;13.40;99.90
12911;DHT22;6523;49.758;6.120;2023-11-19T15:13:13;13.40;99.90
12911;DHT22;6523;49.758;6.120;2023-11-19T15:15:38;13.40;99.90
12911;DHT22;6523;49.758;6.120;2023-11-19T15:18:04;13.30;99.90
12911;DHT22;6523;49.758;6.120;2023-11-19T15:20:30;13.20;99.90
12911;DHT22;6523;49.758;6.120;2023-11-19T15:22:57;13.20;99.90
12911;DHT22;6523;49.758;6.120;2023-11-19T15:25:22;13.20;99.90
12911;DHT22;6523;49.758;6.120;2023-11-19T15:27:48;13.10;99.90
12911;DHT22;6523;49.758;6.120;2023-11-19T15:30:14;13.10;99.90
12911;DHT22;6523;49.758;6.120;2023-11-19T15:32:41;13.10;99.90
12911;DHT22;6523;49.758;6.120;2023-11-19T15:35:10;12.90;99.90
12911;DHT22;6523;49.758;6.120;2023-11-19T15:37:37;12.80;99.90
12911;DHT22;6523;49.758;6.120;2023-11-19T15:40:06;12.80;99.90
12911;DHT22;6523;49.758;6.120;2023-11-19T15:42:36;12.70;99.90
12911;DHT22;6523;49.758;6.120;2023-11-19T15:45:02;12.60;99.90
12911;DHT22;6523;49.758;6.120;2023-11-19T15:47:32;12.60;99.90
12911;DHT22;6523;49.758;6.120;2023-11-19T15:49:57;12.60;99.90
12911;DHT22;6523;49.758;6.120;2023-11-19T15:52:23;12.60;99.90
12911;DHT22;6523;49.758;6.120;2023-11-19T15:54:48;12.40;99.90
12911;DHT22;6523;49.758;6.120;2023-11-19T15:57:14;12.20;99.90
12911;DHT22;6523;49.758;6.120;2023-11-19T15:59:40;12.10;99.90
12911;DHT22;6523;49.758;6.120;2023-11-19T16:02:05;12.20;99.90
12911;DHT22;6523;49.758;6.120;2023-11-19T16:04:31;12.30;99.90
12911;DHT22;6523;49.758;6.120;2023-11-19T16:06:56;12.10;99.90
12911;DHT22;6523;49.758;6.120;2023-11-19T16:09:22;12.20;99.90